Time;durP1;ratioP1;P1;durP2;ratioP2;P2;SDS_P1;SDS_P2;PMS_P1;PMS_P2;Temp;Humidity;BMP_temperature;BMP_pressure;BME280_temperature;BME280_humidity;BME280_pressure;Samples;Min_cycle;Max_cycle;Signal;HPM_P1;HPM_P2
2021/05/31 00:00:12;;;;;;;27.10;16.38;;;9.50;99.90;;;;;;4997572;28;20057;-85
2021/05/31 00:34:46;;;;;;;29.95;19.88;;;9.40;99.90;;;;;;4924576;29;21415;-84
2021/05/31 00:56:43;;;;;;;52.22;25.52;;;9.00;99.90;;;;;;4915500;29;20549;-83
2021/05/31 01:00:11;;;;;;;86.65;26.50;;;9.10;99.90;;;;;;4902198;29;20055;-83
2021/05/31 01:03:13;;;;;;;84.15;29.23;;;9.00;99.90;;;;;;4872184;29;20084;-83
2021/05/31 01:07:18;;;;;;;109.97;27.33;;;8.90;99.90;;;;;;4922232;29;20281;-84
2021/05/31 01:10:48;;;;;;;126.35;26.50;;;8.90;99.90;;;;;;4872623;29;20065;-84
2021/05/31 01:13:59;;;;;;;146.98;28.05;;;8.90;99.90;;;;;;4833493;29;20053;-83
2021/05/31 01:17:19;;;;;;;208.63;31.00;;;8.90;99.90;;;;;;4850973;29;20056;-85
2021/05/31 02:05:07;;;;;;;126.40;29.85;;;8.80;99.90;;;;;;4748787;29;20123;-84
2021/05/31 02:07:43;;;;;;;227.55;34.83;;;8.90;99.90;;;;;;4793822;29;20145;-84
2021/05/31 02:10:46;;;;;;;164.98;32.00;;;8.80;99.90;;;;;;4791254;29;20596;-85
2021/05/31 02:13:12;;;;;;;209.15;32.70;;;8.80;99.90;;;;;;4916836;28;20509;-84
2021/05/31 02:15:55;;;;;;;127.45;29.67;;;8.70;99.90;;;;;;4981745;28;20052;-84
2021/05/31 02:18:48;;;;;;;181.20;31.15;;;8.70;99.90;;;;;;5029620;28;20523;-84
2021/05/31 02:21:16;;;;;;;228.43;33.35;;;8.70;99.90;;;;;;5019291;28;20053;-85
2021/05/31 02:23:43;;;;;;;157.98;30.10;;;8.70;99.90;;;;;;5031911;28;20037;-84
2021/05/31 02:26:13;;;;;;;124.00;30.02;;;8.70;99.90;;;;;;5046077;28;20158;-84
2021/05/31 02:28:39;;;;;;;151.63;30.35;;;8.80;99.90;;;;;;5027856;28;20132;-84
2021/05/31 02:31:08;;;;;;;123.28;31.60;;;8.70;99.90;;;;;;5047552;28;20036;-84
2021/05/31 02:33:35;;;;;;;144.40;34.22;;;8.80;99.90;;;;;;5032359;28;20491;-84
2021/05/31 02:36:01;;;;;;;125.15;32.13;;;8.80;99.90;;;;;;5049512;28;20048;-84
2021/05/31 02:38:27;;;;;;;201.00;37.88;;;8.80;99.90;;;;;;5032043;28;20040;-85
2021/05/31 02:40:53;;;;;;;136.73;30.50;;;8.80;99.90;;;;;;5050676;28;20040;-85
2021/05/31 02:43:19;;;;;;;199.30;35.88;;;8.70;99.90;;;;;;5030448;28;20047;-84
2021/05/31 02:45:44;;;;;;;157.85;35.42;;;8.70;99.90;;;;;;5051812;28;20831;-84
2021/05/31 02:48:10;;;;;;;125.38;33.70;;;8.80;99.90;;;;;;5050069;28;20032;-84
2021/05/31 02:50:36;;;;;;;107.43;31.60;;;8.80;99.90;;;;;;5050752;28;20506;-84
2021/05/31 02:53:03;;;;;;;167.90;35.30;;;8.90;99.90;;;;;;5050030;28;20055;-84
2021/05/31 02:55:30;;;;;;;171.40;36.95;;;9.40;99.90;;;;;;5032176;28;20037;-84
2021/05/31 02:57:56;;;;;;;257.85;40.88;;;8.90;99.90;;;;;;5050445;28;20061;-84
2021/05/31 03:00:24;;;;;;;156.02;35.97;;;8.90;99.90;;;;;;5049496;28;20122;-84
2021/05/31 03:02:50;;;;;;;196.20;34.42;;;8.90;99.90;;;;;;5051547;28;20064;-84
2021/05/31 03:05:22;;;;;;;178.57;34.58;;;9.00;99.90;;;;;;5030499;28;20901;-84
2021/05/31 03:07:47;;;;;;;143.63;36.67;;;9.00;99.90;;;;;;5063120;28;20127;-84
2021/05/31 03:10:16;;;;;;;199.90;36.47;;;9.00;99.90;;;;;;5035447;28;20782;-84
2021/05/31 03:12:42;;;;;;;137.63;35.10;;;9.30;99.90;;;;;;5050442;28;20414;-84
2021/05/31 03:15:11;;;;;;;179.82;37.53;;;9.00;99.90;;;;;;5046634;28;20045;-84
2021/05/31 03:17:37;;;;;;;175.65;33.50;;;9.00;99.90;;;;;;5047581;28;20695;-84
2021/05/31 03:20:07;;;;;;;142.77;33.55;;;9.00;99.90;;;;;;5032145;28;20098;-84
2021/05/31 03:22:33;;;;;;;115.90;32.90;;;9.00;99.90;;;;;;5035525;28;20041;-84
2021/05/31 03:25:00;;;;;;;146.10;35.35;;;9.10;99.90;;;;;;5045541;28;20052;-84
2021/05/31 03:27:27;;;;;;;271.83;39.72;;;9.10;99.90;;;;;;5029573;28;20088;-84
2021/05/31 03:29:52;;;;;;;226.35;35.33;;;9.10;99.90;;;;;;5046860;28;20464;-84
2021/05/31 03:32:18;;;;;;;265.00;44.60;;;9.10;99.90;;;;;;5049079;28;20041;-84
2021/05/31 03:34:46;;;;;;;200.90;35.75;;;9.80;99.90;;;;;;5032577;28;20033;-84
2021/05/31 03:37:11;;;;;;;430.58;48.45;;;9.10;99.90;;;;;;5047489;28;20041;-84
2021/05/31 03:39:38;;;;;;;124.75;35.58;;;9.20;99.90;;;;;;5048511;28;20048;-84
2021/05/31 03:42:04;;;;;;;261.92;41.90;;;9.10;99.90;;;;;;5044977;28;20029;-83
2021/05/31 03:44:30;;;;;;;276.20;42.38;;;9.20;99.90;;;;;;5048989;28;20033;-84
2021/05/31 03:46:55;;;;;;;181.13;36.10;;;9.20;99.90;;;;;;5047833;28;20037;-84
2021/05/31 03:49:21;;;;;;;181.30;36.65;;;9.20;99.90;;;;;;5049034;28;20037;-83
2021/05/31 03:51:47;;;;;;;201.70;37.88;;;9.20;99.90;;;;;;5030217;28;20574;-84
2021/05/31 03:58:48;;;;;;;169.45;33.00;;;9.20;99.90;;;;;;5045909;28;20035;-84
2021/05/31 04:02:36;;;;;;;173.25;28.05;;;9.40;99.90;;;;;;4950513;28;20047;-83
2021/05/31 04:24:16;;;;;;;168.20;21.57;;;9.40;99.90;;;;;;4922765;29;20050;-84
2021/05/31 04:27:41;;;;;;;180.93;24.85;;;9.30;99.90;;;;;;4923168;29;20098;-85
2021/05/31 04:38:54;;;;;;;151.38;25.38;;;9.40;99.90;;;;;;4871031;29;20137;-84
2021/05/31 04:41:44;;;;;;;180.38;24.67;;;9.50;99.90;;;;;;4848475;29;21146;-83
2021/05/31 04:48:11;;;;;;;143.02;24.95;;;9.60;99.90;;;;;;4870701;29;20184;-84
2021/05/31 04:54:48;;;;;;;197.73;25.73;;;9.50;99.90;;;;;;4867562;29;20249;-82
2021/05/31 04:57:21;;;;;;;152.23;23.77;;;9.40;99.90;;;;;;4903285;28;20054;-83
2021/05/31 04:59:53;;;;;;;176.00;25.05;;;9.50;99.90;;;;;;4932022;29;20141;-86
2021/05/31 05:02:19;;;;;;;106.43;25.02;;;9.50;99.90;;;;;;5046442;28;20049;-86
2021/05/31 05:04:47;;;;;;;138.93;26.42;;;9.70;99.90;;;;;;5048936;28;20037;-86
2021/05/31 05:07:14;;;;;;;108.68;25.30;;;9.60;99.90;;;;;;5050584;28;20041;-83
2021/05/31 05:09:40;;;;;;;241.00;24.80;;;9.60;99.90;;;;;;5046512;28;20037;-83
2021/05/31 05:12:06;;;;;;;276.98;29.83;;;9.70;99.90;;;;;;5032153;28;20040;-83
2021/05/31 05:14:32;;;;;;;171.30;23.38;;;9.70;99.90;;;;;;5047445;28;20037;-85
2021/05/31 05:16:58;;;;;;;82.35;21.60;;;9.70;99.90;;;;;;5050088;28;20039;-86
2021/05/31 05:19:24;;;;;;;145.35;21.73;;;9.80;99.90;;;;;;5051413;28;20045;-85
2021/05/31 05:21:49;;;;;;;130.45;23.88;;;9.70;99.90;;;;;;5046388;28;20026;-84
2021/05/31 05:24:15;;;;;;;130.90;24.73;;;9.80;99.90;;;;;;5045007;28;20037;-84
2021/05/31 05:26:41;;;;;;;154.18;23.27;;;9.80;99.90;;;;;;5026991;28;20041;-84
2021/05/31 05:29:09;;;;;;;136.45;24.30;;;10.10;99.90;;;;;;5029229;28;20029;-80
2021/05/31 05:31:36;;;;;;;138.40;25.50;;;10.30;99.90;;;;;;5047003;28;20037;-83
2021/05/31 05:34:05;;;;;;;176.88;24.23;;;9.90;99.90;;;;;;5044789;28;20051;-86
2021/05/31 05:36:53;;;;;;;131.55;21.90;;;10.40;99.90;;;;;;5031478;28;20040;-84
2021/05/31 05:42:27;;;;;;;122.75;21.92;;;10.00;99.90;;;;;;5046576;28;20025;-84
2021/05/31 05:49:49;;;;;;;79.97;22.67;;;10.20;99.90;;;;;;5047428;28;20033;-84
2021/05/31 05:52:15;;;;;;;100.68;23.02;;;10.20;99.90;;;;;;5051780;28;20039;-83
2021/05/31 06:01:37;;;;;;;122.53;22.15;;;10.30;99.90;;;;;;5022368;28;20419;-85
2021/05/31 06:04:03;;;;;;;120.18;24.58;;;10.30;99.90;;;;;;5014553;28;20041;-85
2021/05/31 06:06:30;;;;;;;112.47;22.77;;;10.30;99.90;;;;;;5025946;28;20083;-85
2021/05/31 06:08:56;;;;;;;153.73;26.27;;;10.30;99.90;;;;;;5026828;28;20041;-85
2021/05/31 06:11:24;;;;;;;108.45;24.90;;;10.30;99.90;;;;;;5043091;28;20518;-85
2021/05/31 06:13:53;;;;;;;116.80;26.55;;;10.40;99.90;;;;;;5041173;28;20047;-85
2021/05/31 06:16:19;;;;;;;179.38;28.50;;;10.40;99.90;;;;;;5041145;28;20115;-85
2021/05/31 06:18:45;;;;;;;68.80;25.80;;;10.50;99.90;;;;;;5042377;28;20487;-85
2021/05/31 06:21:11;;;;;;;82.20;24.27;;;10.60;99.90;;;;;;5039161;28;20037;-84
2021/05/31 06:23:37;;;;;;;100.07;24.95;;;10.70;99.90;;;;;;5040060;28;20047;-85
2021/05/31 06:26:02;;;;;;;92.18;23.40;;;10.70;99.90;;;;;;5040184;28;20045;-86
2021/05/31 06:28:28;;;;;;;148.45;24.52;;;10.80;99.90;;;;;;5043011;28;20068;-86
2021/05/31 06:30:54;;;;;;;156.82;22.42;;;10.90;99.90;;;;;;5026614;28;20178;-88
2021/05/31 06:33:20;;;;;;;120.47;24.63;;;10.80;99.90;;;;;;5011839;28;20056;-84
2021/05/31 06:35:47;;;;;;;147.45;25.02;;;10.80;99.90;;;;;;5039481;28;20076;-83
2021/05/31 06:38:13;;;;;;;133.45;25.52;;;10.80;99.90;;;;;;5040271;28;21276;-84
2021/05/31 06:40:39;;;;;;;54.72;21.80;;;10.90;99.90;;;;;;5040366;28;20179;-84
2021/05/31 06:43:06;;;;;;;128.90;23.17;;;10.90;99.90;;;;;;5043115;28;20052;-84
2021/05/31 06:45:33;;;;;;;153.90;28.42;;;10.90;99.90;;;;;;5056275;28;20061;-83
2021/05/31 06:48:07;;;;;;;88.70;22.83;;;10.90;99.90;;;;;;5044039;28;20096;-83
2021/05/31 06:50:37;;;;;;;118.10;23.58;;;11.00;99.90;;;;;;5047543;28;20851;-83
2021/05/31 06:53:03;;;;;;;52.67;22.30;;;11.10;99.90;;;;;;5031357;28;20037;-83
2021/05/31 06:55:31;;;;;;;154.70;24.33;;;11.00;99.90;;;;;;5041928;28;20033;-84
2021/05/31 06:57:58;;;;;;;70.55;21.08;;;10.90;99.90;;;;;;5042459;28;20044;-84
2021/05/31 07:00:26;;;;;;;62.05;25.00;;;11.10;99.90;;;;;;5023427;28;20087;-83
2021/05/31 07:02:56;;;;;;;55.67;23.63;;;11.00;99.90;;;;;;5021189;28;20044;-83
2021/05/31 07:05:22;;;;;;;108.35;22.38;;;11.50;99.90;;;;;;5017739;28;20041;-83
2021/05/31 07:07:49;;;;;;;59.40;23.00;;;11.20;99.90;;;;;;5037643;28;20057;-83
2021/05/31 07:10:23;;;;;;;40.55;22.70;;;11.70;99.90;;;;;;5039804;28;20041;-83
2021/05/31 07:12:49;;;;;;;44.80;25.00;;;11.30;99.90;;;;;;5022783;28;20044;-83
2021/05/31 07:15:15;;;;;;;48.67;25.05;;;11.40;99.90;;;;;;5042361;28;20032;-83
2021/05/31 07:17:41;;;;;;;38.58;22.63;;;11.50;99.90;;;;;;5042037;28;20487;-83
2021/05/31 07:20:11;;;;;;;31.95;22.85;;;11.70;99.90;;;;;;5024361;28;20036;-84
2021/05/31 07:22:42;;;;;;;32.58;21.20;;;11.80;99.90;;;;;;5041501;28;20060;-83
2021/05/31 07:25:10;;;;;;;32.35;20.65;;;11.80;99.90;;;;;;5022715;28;20032;-83
2021/05/31 07:27:36;;;;;;;23.85;20.60;;;11.90;99.90;;;;;;5023355;28;20041;-84
2021/05/31 07:30:06;;;;;;;42.25;23.60;;;12.30;99.90;;;;;;5039961;28;20029;-85
2021/05/31 07:32:32;;;;;;;28.85;22.55;;;12.00;99.90;;;;;;5038953;28;20515;-85
2021/05/31 07:34:58;;;;;;;29.58;22.58;;;12.10;99.90;;;;;;5040880;28;20036;-86
2021/05/31 07:37:25;;;;;;;41.53;23.35;;;12.20;99.90;;;;;;5037386;28;20068;-84
2021/05/31 07:39:51;;;;;;;35.60;20.85;;;12.20;99.90;;;;;;5037940;28;20040;-84
2021/05/31 07:42:18;;;;;;;24.35;20.88;;;12.10;99.90;;;;;;5038010;28;20037;-85
2021/05/31 07:53:01;;;;;;;24.10;21.25;;;12.40;99.90;;;;;;5032476;28;20091;-84
2021/05/31 07:55:29;;;;;;;23.20;20.08;;;12.50;99.90;;;;;;5012558;28;20045;-83
2021/05/31 07:57:55;;;;;;;28.25;22.27;;;12.60;99.90;;;;;;5038813;28;20074;-84
2021/05/31 08:00:22;;;;;;;21.52;19.30;;;12.70;99.90;;;;;;5037942;28;20041;-84
2021/05/31 08:02:50;;;;;;;20.85;18.80;;;12.70;99.90;;;;;;5020175;28;20190;-84
2021/05/31 08:05:18;;;;;;;21.85;19.45;;;13.00;99.90;;;;;;5034694;28;20042;-84
2021/05/31 08:07:48;;;;;;;21.00;18.83;;;12.70;99.90;;;;;;5019724;28;20044;-84
2021/05/31 08:14:50;;;;;;;18.80;16.98;;;12.90;99.90;;;;;;4938419;28;20061;-84
2021/05/31 08:22:15;;;;;;;20.08;17.90;;;13.20;99.90;;;;;;4877837;29;20471;-85
2021/05/31 08:29:35;;;;;;;20.25;18.13;;;13.40;99.90;;;;;;4827751;29;20156;-85
2021/05/31 08:33:27;;;;;;;19.13;16.88;;;13.50;99.90;;;;;;4843035;29;20055;-85
2021/05/31 09:06:57;;;;;;;20.58;18.48;;;15.10;99.90;;;;;;4815844;29;20085;-84
2021/05/31 09:14:32;;;;;;;18.13;16.25;;;15.40;99.90;;;;;;4879359;29;20054;-86
2021/05/31 09:21:31;;;;;;;19.83;17.80;;;15.90;99.90;;;;;;4877850;29;21179;-85
2021/05/31 09:24:43;;;;;;;18.63;16.75;;;16.10;99.90;;;;;;4971109;28;20057;-86
2021/05/31 09:27:17;;;;;;;18.10;15.88;;;16.30;99.90;;;;;;4997121;28;20045;-83
2021/05/31 09:30:19;;;;;;;18.40;16.70;;;16.70;99.90;;;;;;5036082;28;20781;-83
2021/05/31 09:32:54;;;;;;;16.95;15.23;;;17.00;99.90;;;;;;5036539;28;20064;-83
2021/05/31 09:35:23;;;;;;;17.10;15.50;;;17.20;99.90;;;;;;5020800;28;20041;-83
2021/05/31 09:37:50;;;;;;;16.92;15.30;;;17.40;99.90;;;;;;5037032;28;20055;-82
2021/05/31 09:40:36;;;;;;;16.33;14.63;;;17.90;99.90;;;;;;5033584;28;21911;-83
2021/05/31 09:47:36;;;;;;;15.27;13.85;;;18.00;99.30;;;;;;4932192;28;19929;-85
2021/05/31 09:51:16;;;;;;;16.27;14.77;;;18.30;98.90;;;;;;4853487;29;20121;-84
2021/05/31 09:53:42;;;;;;;16.52;14.25;;;18.60;98.80;;;;;;4868690;28;20481;-85
2021/05/31 09:56:17;;;;;;;15.10;13.60;;;18.90;98.30;;;;;;4946851;28;20106;-84
2021/05/31 09:58:50;;;;;;;14.30;13.00;;;19.00;97.80;;;;;;5035187;28;20116;-84
2021/05/31 10:01:31;;;;;;;13.93;12.55;;;19.10;97.20;;;;;;5034017;28;20036;-84
2021/05/31 10:04:14;;;;;;;14.15;12.80;;;19.20;96.80;;;;;;5034699;28;20041;-84
2021/05/31 10:09:53;;;;;;;12.02;10.77;;;19.50;96.30;;;;;;4999880;28;20563;-85
2021/05/31 10:12:54;;;;;;;13.32;11.98;;;19.70;95.40;;;;;;5010207;28;20126;-85
2021/05/31 10:19:58;;;;;;;10.57;9.68;;;20.20;94.70;;;;;;4878300;29;20066;-85
2021/05/31 10:37:27;;;;;;;11.30;9.25;;;21.30;92.40;;;;;;4865047;29;20116;-84
2021/05/31 10:51:31;;;;;;;6.55;5.10;;;21.50;86.30;;;;;;4869787;29;20135;-84
2021/05/31 10:54:33;;;;;;;6.93;4.78;;;21.80;81.90;;;;;;4893454;28;20192;-85
2021/05/31 10:57:18;;;;;;;4.85;4.38;;;21.70;81.80;;;;;;4952749;28;20592;-84
2021/05/31 10:59:50;;;;;;;7.88;3.90;;;21.80;79.20;;;;;;4948676;28;20153;-83
2021/05/31 11:02:27;;;;;;;4.68;2.45;;;21.90;76.70;;;;;;5003686;28;20511;-85
2021/05/31 11:05:06;;;;;;;3.67;2.20;;;21.90;77.40;;;;;;5027079;28;20055;-85
2021/05/31 11:07:33;;;;;;;3.90;2.67;;;21.70;63.30;;;;;;5042362;28;20048;-85
2021/05/31 11:09:59;;;;;;;4.18;2.40;;;21.90;64.40;;;;;;5043286;28;20049;-83
2021/05/31 11:12:30;;;;;;;2.90;2.13;;;21.90;64.00;;;;;;5044840;28;20041;-84
2021/05/31 11:15:16;;;;;;;3.97;2.53;;;22.00;57.40;;;;;;5036197;28;22056;-84
2021/05/31 11:17:51;;;;;;;5.30;2.53;;;21.90;61.60;;;;;;5039324;28;20055;-84
2021/05/31 11:27:31;;;;;;;2.70;2.47;;;21.70;54.70;;;;;;4987765;28;20045;-84
2021/05/31 11:30:52;;;;;;;2.50;2.30;;;21.80;57.80;;;;;;5031283;28;21234;-84
2021/05/31 11:33:46;;;;;;;4.07;2.85;;;21.80;59.40;;;;;;5019555;28;20851;-85
2021/05/31 11:36:53;;;;;;;6.68;3.15;;;21.90;61.00;;;;;;4976474;28;20820;-86
2021/05/31 11:44:11;;;;;;;3.70;3.30;;;22.10;60.00;;;;;;4851331;29;20186;-85
2021/05/31 11:50:53;;;;;;;5.15;3.63;;;22.40;60.70;;;;;;4833068;29;20044;-84
2021/05/31 11:53:46;;;;;;;5.03;4.35;;;22.60;60.00;;;;;;4851775;29;20059;-84
2021/05/31 11:57:10;;;;;;;5.13;4.53;;;22.50;59.40;;;;;;4851506;29;20171;-85
2021/05/31 11:59:38;;;;;;;5.25;4.75;;;22.40;62.00;;;;;;4888493;28;20226;-84
2021/05/31 12:02:07;;;;;;;5.97;4.72;;;22.30;63.30;;;;;;5016061;28;20048;-84
2021/05/31 12:04:32;;;;;;;6.18;4.88;;;22.30;63.50;;;;;;5031862;28;20396;-84
2021/05/31 12:07:01;;;;;;;5.50;4.57;;;22.40;62.90;;;;;;5031536;28;20075;-83
2021/05/31 12:09:28;;;;;;;5.57;5.07;;;22.40;62.70;;;;;;5012595;28;20441;-84
2021/05/31 12:11:54;;;;;;;6.18;5.63;;;22.50;63.90;;;;;;5030847;28;20033;-84
2021/05/31 12:14:21;;;;;;;8.20;6.00;;;22.50;66.20;;;;;;5028237;28;20554;-83
2021/05/31 12:16:54;;;;;;;7.55;4.95;;;22.70;67.40;;;;;;5009718;28;20051;-84
2021/05/31 12:19:20;;;;;;;6.43;5.05;;;22.70;61.00;;;;;;5029499;28;20142;-84
2021/05/31 12:21:46;;;;;;;6.15;5.03;;;22.60;62.90;;;;;;5030005;28;20119;-84
2021/05/31 12:24:11;;;;;;;7.60;6.55;;;22.50;60.80;;;;;;5030535;28;20041;-85
2021/05/31 12:26:39;;;;;;;6.95;6.00;;;22.60;60.10;;;;;;5031281;28;20403;-84
2021/05/31 12:29:10;;;;;;;9.27;6.53;;;22.70;65.00;;;;;;5029277;28;20037;-84
2021/05/31 12:31:36;;;;;;;8.95;5.50;;;22.90;66.50;;;;;;5030383;28;20075;-84
2021/05/31 12:34:02;;;;;;;8.60;6.35;;;22.90;65.00;;;;;;5030168;28;20053;-83
2021/05/31 12:36:29;;;;;;;7.13;6.43;;;22.60;62.20;;;;;;5030321;28;20056;-84
2021/05/31 12:38:56;;;;;;;8.73;5.50;;;22.70;60.30;;;;;;5030106;28;20165;-84
2021/05/31 12:41:23;;;;;;;8.02;5.50;;;22.80;61.30;;;;;;5030385;28;20048;-84
2021/05/31 12:43:49;;;;;;;6.82;4.68;;;22.70;62.30;;;;;;5029915;28;20040;-84
2021/05/31 12:46:19;;;;;;;6.32;5.72;;;23.00;58.70;;;;;;5011484;28;20072;-85
2021/05/31 12:48:49;;;;;;;7.38;5.95;;;23.00;62.10;;;;;;5030150;28;20049;-84
2021/05/31 12:51:15;;;;;;;10.20;5.68;;;22.70;58.60;;;;;;5011344;28;20084;-84
2021/05/31 12:53:42;;;;;;;5.78;4.53;;;22.90;58.60;;;;;;5029149;28;20049;-85
2021/05/31 12:56:08;;;;;;;7.15;5.80;;;22.80;61.70;;;;;;5032850;28;20041;-85
2021/05/31 12:58:33;;;;;;;5.40;4.65;;;22.70;58.50;;;;;;5031253;28;20045;-84
2021/05/31 13:01:00;;;;;;;6.70;4.35;;;22.70;57.70;;;;;;5029166;28;20170;-84
2021/05/31 13:03:35;;;;;;;6.60;4.82;;;23.00;60.00;;;;;;5032564;28;20478;-84
2021/05/31 13:06:03;;;;;;;7.50;4.85;;;22.80;57.00;;;;;;5027602;28;20120;-84
2021/05/31 13:08:39;;;;;;;6.85;5.25;;;23.00;60.70;;;;;;5029962;28;21042;-84
2021/05/31 13:11:05;;;;;;;4.60;4.10;;;23.00;57.80;;;;;;5012235;28;20965;-83
2021/05/31 13:13:36;;;;;;;6.45;4.68;;;23.10;60.20;;;;;;5028664;28;20099;-83
2021/05/31 13:16:08;;;;;;;8.93;4.13;;;23.30;57.20;;;;;;5030943;28;20045;-84
2021/05/31 13:18:39;;;;;;;6.03;4.05;;;23.30;59.00;;;;;;5030726;28;20443;-84
2021/05/31 13:21:07;;;;;;;4.55;3.88;;;23.40;56.40;;;;;;5028666;28;20182;-84
2021/05/31 13:23:34;;;;;;;4.22;3.75;;;23.50;56.60;;;;;;5029040;28;20063;-84
2021/05/31 13:26:01;;;;;;;9.82;2.50;;;23.70;57.00;;;;;;5029642;28;20040;-84
2021/05/31 13:28:35;;;;;;;5.10;2.38;;;23.90;52.10;;;;;;5031904;28;20044;-84
2021/05/31 13:31:03;;;;;;;4.05;2.00;;;23.90;50.60;;;;;;5030214;28;21101;-84
2021/05/31 13:33:30;;;;;;;2.97;2.33;;;23.50;49.70;;;;;;5032337;28;20103;-84
2021/05/31 13:35:58;;;;;;;3.10;2.08;;;23.60;50.80;;;;;;5030918;28;20043;-83
2021/05/31 13:38:29;;;;;;;2.92;2.10;;;23.90;49.90;;;;;;5030661;28;20041;-84
2021/05/31 13:40:56;;;;;;;4.35;1.30;;;23.90;51.70;;;;;;5012839;28;20116;-85
2021/05/31 13:43:25;;;;;;;2.45;1.60;;;23.90;44.10;;;;;;5028885;28;20040;-84
2021/05/31 13:45:53;;;;;;;3.35;0.93;;;23.50;45.00;;;;;;5032119;28;20033;-84
2021/05/31 13:48:21;;;;;;;2.17;1.42;;;23.40;42.20;;;;;;5031644;28;20048;-85
2021/05/31 13:50:49;;;;;;;1.73;1.08;;;23.40;44.50;;;;;;5031981;28;20044;-85
2021/05/31 13:53:15;;;;;;;4.18;1.33;;;23.60;43.50;;;;;;5029380;28;20064;-84
2021/05/31 13:55:42;;;;;;;1.55;0.95;;;23.50;42.70;;;;;;5030589;28;20033;-83
2021/05/31 13:58:09;;;;;;;1.60;0.77;;;23.30;40.90;;;;;;5030600;28;20041;-84
2021/05/31 14:00:35;;;;;;;3.22;0.95;;;23.30;40.70;;;;;;5031950;28;20042;-84
2021/05/31 14:03:02;;;;;;;3.35;0.93;;;23.30;39.40;;;;;;5031842;28;20040;-84
2021/05/31 14:05:33;;;;;;;3.72;0.98;;;23.30;38.70;;;;;;5029308;28;20052;-84
2021/05/31 14:08:00;;;;;;;1.98;0.90;;;23.10;39.00;;;;;;5030622;28;20526;-84
2021/05/31 14:10:51;;;;;;;0.95;0.60;;;23.40;39.80;;;;;;5013321;28;20052;-86
2021/05/31 14:13:48;;;;;;;2.42;1.02;;;23.30;39.00;;;;;;5034435;28;20039;-85
2021/05/31 14:16:14;;;;;;;1.55;0.90;;;23.40;42.00;;;;;;5045087;28;20045;-85
2021/05/31 14:18:42;;;;;;;0.95;0.63;;;23.50;39.30;;;;;;5039016;28;21906;-86
2021/05/31 14:21:08;;;;;;;4.30;0.98;;;23.40;37.40;;;;;;5038469;28;20049;-85
2021/05/31 14:23:34;;;;;;;1.30;0.80;;;23.10;37.80;;;;;;5040470;28;20083;-86
2021/05/31 14:26:00;;;;;;;6.68;1.40;;;23.30;41.20;;;;;;5041436;28;20040;-86
2021/05/31 14:28:26;;;;;;;2.85;0.73;;;23.60;41.00;;;;;;5044639;28;20043;-86
2021/05/31 14:30:51;;;;;;;3.15;1.10;;;23.50;42.00;;;;;;5030991;28;20384;-86
2021/05/31 14:33:17;;;;;;;4.05;1.20;;;23.40;40.70;;;;;;5028121;28;20089;-86
2021/05/31 14:35:43;;;;;;;3.90;1.17;;;23.30;39.90;;;;;;5030556;28;20124;-86
2021/05/31 14:38:09;;;;;;;2.08;0.90;;;23.30;40.20;;;;;;5041351;28;20110;-86
2021/05/31 14:40:35;;;;;;;4.50;0.90;;;23.30;41.10;;;;;;5038752;28;20048;-86
2021/05/31 14:43:01;;;;;;;2.08;0.93;;;23.30;41.70;;;;;;5028356;28;20033;-86
2021/05/31 14:45:33;;;;;;;1.98;0.55;;;23.30;41.90;;;;;;5043069;28;20113;-86
2021/05/31 14:48:03;;;;;;;1.45;0.88;;;23.30;41.30;;;;;;5037292;28;20039;-85
2021/05/31 14:50:29;;;;;;;3.47;1.00;;;23.30;39.90;;;;;;5017049;28;20040;-84
2021/05/31 14:52:55;;;;;;;3.00;1.08;;;23.30;40.50;;;;;;5028568;28;20103;-85
2021/05/31 14:55:21;;;;;;;2.80;0.98;;;23.40;42.60;;;;;;5032020;28;20045;-85
2021/05/31 14:57:47;;;;;;;3.22;1.25;;;23.40;41.50;;;;;;5036246;28;20044;-84
2021/05/31 15:00:17;;;;;;;3.53;0.80;;;23.40;40.80;;;;;;5030195;28;20037;-84
2021/05/31 15:02:43;;;;;;;1.50;0.80;;;23.40;39.90;;;;;;5015012;28;20040;-84
2021/05/31 15:05:13;;;;;;;2.70;0.82;;;23.50;42.50;;;;;;5029962;28;20593;-84
2021/05/31 15:07:39;;;;;;;4.68;1.38;;;23.40;43.90;;;;;;5028636;28;20045;-84
2021/05/31 15:10:13;;;;;;;1.05;0.80;;;23.40;42.40;;;;;;5030297;28;20770;-83
2021/05/31 15:12:47;;;;;;;1.27;0.88;;;23.50;40.40;;;;;;5011428;28;20056;-84
2021/05/31 15:15:13;;;;;;;1.92;1.00;;;23.40;40.20;;;;;;4998139;28;20036;-83
2021/05/31 15:17:39;;;;;;;2.45;0.90;;;23.30;39.90;;;;;;5033137;28;20052;-84
2021/05/31 15:20:06;;;;;;;2.75;0.80;;;23.30;40.20;;;;;;5032155;28;20036;-84
2021/05/31 15:22:32;;;;;;;3.28;1.35;;;23.30;40.10;;;;;;5029439;28;20029;-83
2021/05/31 15:24:58;;;;;;;1.17;0.70;;;23.20;39.40;;;;;;5014845;28;20033;-82
2021/05/31 15:27:24;;;;;;;2.78;0.90;;;23.20;41.50;;;;;;5011137;28;20041;-83
2021/05/31 15:29:52;;;;;;;1.95;1.48;;;23.10;41.30;;;;;;5031593;28;20033;-83
2021/05/31 15:32:18;;;;;;;2.60;0.82;;;23.10;41.20;;;;;;5010551;28;20049;-81
2021/05/31 15:34:44;;;;;;;1.40;0.77;;;23.10;41.00;;;;;;5030683;28;20036;-82
2021/05/31 15:37:10;;;;;;;2.72;1.23;;;23.20;41.90;;;;;;5030024;28;20049;-83
2021/05/31 15:39:42;;;;;;;2.33;1.23;;;23.20;43.60;;;;;;5012928;28;20110;-82
2021/05/31 15:42:07;;;;;;;2.95;1.35;;;23.40;43.60;;;;;;5013054;28;20041;-84
2021/05/31 15:44:33;;;;;;;2.00;1.00;;;23.10;43.40;;;;;;5012829;28;20046;-83
2021/05/31 15:50:51;;;;;;;2.45;1.00;;;23.20;41.80;;;;;;4989590;28;20045;-83
2021/05/31 15:53:17;;;;;;;2.05;1.02;;;23.10;43.20;;;;;;4997694;28;21642;-86
2021/05/31 15:55:43;;;;;;;1.25;0.88;;;23.10;41.40;;;;;;5014710;28;20037;-84
2021/05/31 15:58:17;;;;;;;3.50;0.80;;;23.10;42.20;;;;;;5027519;28;20103;-85
2021/05/31 16:09:02;;;;;;;7.03;0.90;;;23.00;41.30;;;;;;5045483;28;20048;-86
2021/05/31 16:12:40;;;;;;;1.95;1.10;;;23.00;39.90;;;;;;5040595;28;20043;-85
2021/05/31 16:37:45;;;;;;;5.45;1.10;;;22.60;44.10;;;;;;4869792;29;20079;-85
2021/05/31 16:45:26;;;;;;;1.50;0.95;;;22.50;42.60;;;;;;4808377;29;20246;-85
2021/05/31 16:59:24;;;;;;;2.63;0.95;;;22.30;41.10;;;;;;4944837;28;20102;-87
2021/05/31 17:03:15;;;;;;;3.28;0.93;;;22.20;43.50;;;;;;4855875;29;20542;-88
2021/05/31 17:10:02;;;;;;;1.67;0.98;;;22.20;43.10;;;;;;4861891;29;20716;-85
2021/05/31 17:38:14;;;;;;;2.63;1.20;;;21.80;43.00;;;;;;4925546;29;20196;-86
2021/05/31 17:41:38;;;;;;;3.42;0.85;;;21.70;44.20;;;;;;4978925;28;20070;-87
2021/05/31 17:52:08;;;;;;;1.77;0.88;;;21.60;44.90;;;;;;4988643;28;20072;-88
2021/05/31 17:54:52;;;;;;;2.00;0.88;;;21.60;43.70;;;;;;5019542;28;20052;-87
2021/05/31 17:57:18;;;;;;;1.92;0.95;;;21.60;45.00;;;;;;5045526;28;20049;-87
2021/05/31 17:59:45;;;;;;;1.67;0.93;;;21.40;45.20;;;;;;5047208;28;20040;-88
2021/05/31 18:02:10;;;;;;;1.55;0.95;;;21.40;45.10;;;;;;5050572;28;20040;-86
2021/05/31 18:04:36;;;;;;;2.28;1.00;;;21.30;45.90;;;;;;5050675;28;20037;-88
2021/05/31 18:07:02;;;;;;;2.33;0.90;;;21.30;46.20;;;;;;5033680;28;20494;-88
2021/05/31 18:09:29;;;;;;;1.73;0.85;;;21.30;46.00;;;;;;5049104;28;20222;-87
2021/05/31 18:11:56;;;;;;;2.42;1.13;;;21.30;46.10;;;;;;5045543;28;20064;-86
2021/05/31 18:14:22;;;;;;;1.80;0.82;;;21.20;46.50;;;;;;5049187;28;20047;-87
2021/05/31 18:16:52;;;;;;;2.22;1.00;;;21.10;47.20;;;;;;5053358;28;20049;-88
2021/05/31 18:19:21;;;;;;;4.65;1.38;;;21.00;47.40;;;;;;5035057;28;20079;-88
2021/05/31 18:21:48;;;;;;;1.40;0.80;;;21.00;48.50;;;;;;5035002;28;20492;-87
2021/05/31 18:24:17;;;;;;;2.40;0.95;;;20.90;49.20;;;;;;5034702;28;20056;-87
2021/05/31 18:26:43;;;;;;;5.32;0.90;;;20.90;48.60;;;;;;5047882;28;20034;-87
2021/05/31 18:29:08;;;;;;;4.20;1.00;;;20.80;48.70;;;;;;5031776;28;20051;-87
2021/05/31 18:31:39;;;;;;;1.45;0.98;;;20.80;47.80;;;;;;5052704;28;20055;-88
2021/05/31 18:34:13;;;;;;;3.47;1.30;;;20.90;48.40;;;;;;5034260;28;20048;-88
2021/05/31 18:36:40;;;;;;;1.80;1.08;;;20.90;49.00;;;;;;5044376;28;20041;-88
2021/05/31 18:39:08;;;;;;;4.97;1.20;;;20.70;48.60;;;;;;5047374;28;20037;-86
2021/05/31 18:41:39;;;;;;;6.05;0.98;;;20.60;49.10;;;;;;5050318;28;20044;-86
2021/05/31 18:44:08;;;;;;;2.50;1.33;;;21.00;49.80;;;;;;5058742;28;20052;-85
2021/05/31 18:46:34;;;;;;;6.35;0.90;;;20.60;50.50;;;;;;5048430;28;20040;-86
2021/05/31 18:49:00;;;;;;;2.80;1.27;;;20.50;50.60;;;;;;5049905;28;20036;-85
2021/05/31 18:51:25;;;;;;;1.42;0.90;;;20.40;51.00;;;;;;5046961;28;20037;-84
2021/05/31 18:54:15;;;;;;;2.58;1.17;;;20.40;51.10;;;;;;5048991;28;21072;-84
2021/05/31 18:57:10;;;;;;;3.30;1.08;;;20.30;51.70;;;;;;5014016;28;20052;-85
2021/05/31 18:59:36;;;;;;;2.25;1.00;;;20.20;52.50;;;;;;5044932;28;20045;-83
2021/05/31 19:02:07;;;;;;;4.95;1.38;;;20.10;52.00;;;;;;5046243;28;20060;-84